Time;durP1;ratioP1;P1;durP2;ratioP2;P2;SDS_P1;SDS_P2;PMS_P1;PMS_P2;Temp;Humidity;BMP_temperature;BMP_pressure;BME280_temperature;BME280_humidity;BME280_pressure;Samples;Min_cycle;Max_cycle;Signal;HPM_P1;HPM_P2
2023/07/12 00:00:23;;;;;;;;;2.00;2.00;;;;;-146.67;38.88;73741.34;5080922;28;62011;-77
2023/07/12 00:02:49;;;;;;;;;3.50;3.50;;;;;-146.67;39.03;73753.31;5082397;28;61801;-77
2023/07/12 00:05:15;;;;;;;;;1.50;1.50;;;;;-146.67;38.98;73735.34;5082664;27;61812;-77
2023/07/12 00:07:40;;;;;;;;;2.00;0.75;;;;;-146.67;38.76;73729.34;5079977;28;64191;-76
2023/07/12 00:10:29;;;;;;;;;2.00;1.00;;;;;-146.67;38.48;73729.34;5080923;28;61765;-77
2023/07/12 00:12:55;;;;;;;;;3.00;3.00;;;;;-146.67;38.77;73735.34;5098019;27;62034;-77
2023/07/12 00:15:23;;;;;;;;;1.50;0.50;;;;;-146.67;38.65;73741.34;5082421;28;62225;-77
2023/07/12 00:17:50;;;;;;;;;1.00;1.00;;;;;-146.67;38.45;73735.34;5081271;27;63019;-76
2023/07/12 00:20:29;;;;;;;;;1.00;1.00;;;;;-146.67;38.12;73729.34;5080057;28;62035;-77
2023/07/12 00:22:54;;;;;;;;;1.00;1.00;;;;;-146.67;38.11;73725.38;5070683;28;62510;-76
2023/07/12 00:25:24;;;;;;;;;2.50;0.75;;;;;-146.67;38.29;73723.38;5062326;28;61861;-76
2023/07/12 00:27:49;;;;;;;;;1.67;0.33;;;;;-146.67;38.21;73717.38;5093794;27;63583;-76
2023/07/12 00:30:21;;;;;;;;;1.00;1.00;;;;;-146.67;38.33;73723.38;5061545;28;61886;-77
2023/07/12 00:32:51;;;;;;;;;0.00;0.00;;;;;-146.67;38.18;73713.38;5094429;27;62090;-76
2023/07/12 00:35:22;;;;;;;;;0.67;0.67;;;;;-146.67;38.25;73719.38;5061707;28;61704;-76
2023/07/12 00:37:52;;;;;;;;;2.00;2.00;;;;;-146.67;38.06;73719.38;5065497;28;61949;-76
2023/07/12 00:40:47;;;;;;;;;1.00;0.00;;;;;-146.67;38.17;73741.34;5081969;27;61917;-76
2023/07/12 00:43:32;;;;;;;;;0.75;0.50;;;;;-146.67;38.39;73769.28;5065921;28;61929;-76
2023/07/12 00:46:01;;;;;;;;;2.67;1.00;;;;;-146.67;39.25;73781.25;5059951;28;62172;-76
2023/07/12 00:48:27;;;;;;;;;1.67;1.67;;;;;-146.67;39.13;73797.22;5061099;28;62716;-76
2023/07/12 00:50:52;;;;;;;;;3.00;2.00;;;;;-146.67;39.06;73813.19;5060542;28;62219;-76
2023/07/12 00:53:21;;;;;;;;;2.75;2.75;;;;;-146.67;39.39;73837.16;5060168;28;61974;-76
2023/07/12 00:56:05;;;;;;;;;1.75;1.00;;;;;-146.67;39.92;73843.13;5077205;27;62249;-76
2023/07/12 00:58:49;;;;;;;;;1.25;1.00;;;;;-146.67;39.88;73845.13;5096370;27;63805;-76
2023/07/12 01:01:16;;;;;;;;;2.25;2.25;;;;;-146.67;39.86;73867.09;5081744;28;61874;-76
2023/07/12 01:03:44;;;;;;;;;3.00;2.00;;;;;-146.67;39.61;73875.06;5065547;28;62036;-76
2023/07/12 01:06:12;;;;;;;;;3.75;1.00;;;;;-146.67;40.19;73889.03;5061395;28;61781;-76
2023/07/12 01:08:41;;;;;;;;;1.00;1.00;;;;;-146.67;40.18;73905.00;5076279;27;64168;-76
2023/07/12 01:11:09;;;;;;;;;2.00;1.00;;;;;-146.67;40.35;73913.00;5064138;28;61821;-76
2023/07/12 01:13:35;;;;;;;;;1.00;1.00;;;;;-146.67;40.47;73924.97;5063195;28;62065;-76
2023/07/12 01:16:03;;;;;;;;;1.00;1.00;;;;;-146.67;40.22;73936.94;5063776;28;62070;-76
2023/07/12 01:18:29;;;;;;;;;1.00;1.00;;;;;-146.67;40.27;73946.94;5062683;28;61805;-76
2023/07/12 01:21:19;;;;;;;;;1.00;1.00;;;;;-146.67;39.84;73956.91;5062613;28;62093;-76
2023/07/12 01:23:45;;;;;;;;;0.33;0.33;;;;;-146.67;40.31;73968.88;5064970;28;62074;-76
2023/07/12 01:26:38;;;;;;;;;1.00;1.00;;;;;-146.67;40.05;73972.88;5083396;27;61953;-76
2023/07/12 01:29:06;;;;;;;;;0.75;0.75;;;;;-146.67;40.22;73976.88;5081557;28;63831;-76
2023/07/12 01:31:34;;;;;;;;;0.25;0.25;;;;;-146.67;40.49;73988.84;5082851;27;61950;-76
2023/07/12 01:33:59;;;;;;;;;3.25;0.00;;;;;-146.67;40.25;73996.84;5083917;27;61972;-76
2023/07/12 01:36:27;;;;;;;;;0.25;0.25;;;;;-146.67;40.08;74000.81;5084158;27;61789;-75
2023/07/12 01:38:54;;;;;;;;;0.00;0.00;;;;;-146.67;39.80;74006.81;5083740;27;63100;-76
2023/07/12 01:41:20;;;;;;;;;1.00;0.00;;;;;-146.67;40.33;74036.75;5084501;27;61881;-76
2023/07/12 01:43:46;;;;;;;;;0.25;0.25;;;;;-146.67;40.11;74040.75;5083008;28;61819;-76
2023/07/12 01:46:12;;;;;;;;;1.00;1.00;;;;;-146.67;40.32;74054.72;5083075;27;61805;-76
2023/07/12 01:48:38;;;;;;;;;0.00;0.00;;;;;-146.67;40.46;74050.72;5082219;28;64868;-77
2023/07/12 01:51:04;;;;;;;;;0.00;0.00;;;;;-146.67;40.48;74052.72;5083661;27;61787;-76
2023/07/12 01:53:31;;;;;;;;;1.25;0.00;;;;;-146.67;40.94;74070.69;5084287;27;61737;-76
2023/07/12 01:55:57;;;;;;;;;0.00;0.00;;;;;-146.67;40.67;74062.72;5084496;27;61774;-76
2023/07/12 01:58:23;;;;;;;;;0.00;0.00;;;;;-146.67;41.15;74080.69;5083670;27;63258;-76
2023/07/12 02:00:52;;;;;;;;;0.00;0.00;;;;;-146.67;40.73;74078.69;5099635;27;61766;-76
2023/07/12 02:03:18;;;;;;;;;0.00;0.00;;;;;-146.67;40.73;74092.66;5083750;27;61861;-76
2023/07/12 02:05:43;;;;;;;;;3.00;0.00;;;;;-146.67;40.99;74102.63;5082926;27;61934;-76
2023/07/12 02:08:10;;;;;;;;;2.00;0.00;;;;;-146.67;40.77;74098.66;5083426;27;62291;-77
2023/07/12 02:10:38;;;;;;;;;0.00;0.00;;;;;-146.67;40.77;74108.63;5084258;27;61757;-77
2023/07/12 02:13:04;;;;;;;;;0.00;0.00;;;;;-146.67;40.95;74120.59;5082747;27;61918;-76
2023/07/12 02:15:30;;;;;;;;;0.50;0.00;;;;;-146.67;40.84;74124.59;5084028;27;61801;-77
2023/07/12 02:17:56;;;;;;;;;0.25;0.00;;;;;-146.67;41.23;74144.56;5078686;27;63714;-76
2023/07/12 02:20:22;;;;;;;;;0.00;0.00;;;;;-146.67;41.68;74158.53;5062868;28;61779;-76
2023/07/12 02:22:48;;;;;;;;;0.00;0.00;;;;;-146.67;40.96;74152.53;5082695;27;61868;-76
2023/07/12 02:25:14;;;;;;;;;1.50;0.00;;;;;-146.67;41.82;74164.53;5082621;27;61815;-76
2023/07/12 02:27:41;;;;;;;;;0.00;0.00;;;;;-146.67;41.59;74168.50;5081901;28;63530;-76
2023/07/12 02:30:14;;;;;;;;;0.00;0.00;;;;;-146.67;41.81;74170.50;5083369;27;62254;-76
2023/07/12 02:32:39;;;;;;;;;0.25;0.25;;;;;-146.67;41.93;74156.53;5083606;27;61838;-76
2023/07/12 02:35:05;;;;;;;;;0.67;0.67;;;;;-146.67;41.41;74144.56;5099442;27;61893;-76
2023/07/12 02:37:31;;;;;;;;;0.25;0.25;;;;;-146.67;41.90;74168.50;5085495;27;63924;-76
2023/07/12 02:39:56;;;;;;;;;0.75;0.00;;;;;-146.67;41.93;74206.44;5063381;28;61843;-76
2023/07/12 02:42:21;;;;;;;;;0.00;0.00;;;;;-146.67;41.90;74210.44;5061845;28;61739;-76
2023/07/12 02:44:47;;;;;;;;;0.00;0.00;;;;;-146.67;42.24;74238.38;5063407;28;61740;-76
2023/07/12 02:47:12;;;;;;;;;0.50;0.00;;;;;-146.67;41.96;74236.38;5061030;28;63972;-76
2023/07/12 02:49:39;;;;;;;;;0.00;0.00;;;;;-146.67;42.13;74226.41;5061350;28;61881;-76
2023/07/12 02:52:06;;;;;;;;;0.00;0.00;;;;;-146.67;42.27;74224.41;5061620;28;61983;-76
2023/07/12 02:54:32;;;;;;;;;1.00;1.00;;;;;-146.67;42.40;74230.41;5098900;27;62068;-76
2023/07/12 02:56:58;;;;;;;;;0.00;0.00;;;;;-146.67;42.21;74214.44;5082641;28;61748;-76
2023/07/12 02:59:24;;;;;;;;;0.75;0.75;;;;;-146.67;42.22;74216.44;5081749;27;61919;-76
2023/07/12 03:01:50;;;;;;;;;0.00;0.00;;;;;-146.67;41.74;74230.41;5081506;27;61878;-76
2023/07/12 03:04:16;;;;;;;;;1.00;1.00;;;;;-146.67;41.74;74230.41;5082938;27;62011;-76
2023/07/12 03:06:42;;;;;;;;;0.75;0.75;;;;;-146.67;41.62;74236.38;5082692;27;62142;-76
2023/07/12 03:09:08;;;;;;;;;0.00;0.00;;;;;-146.67;41.76;74268.31;5083228;28;61961;-76
2023/07/12 03:11:33;;;;;;;;;2.00;1.00;;;;;-146.67;41.57;74278.31;5099005;27;62014;-76
2023/07/12 03:13:58;;;;;;;;;0.25;0.25;;;;;-146.67;41.32;74260.34;5098932;27;62170;-76
2023/07/12 03:16:24;;;;;;;;;0.50;0.50;;;;;-146.67;41.35;74254.34;5080451;28;63789;-76
2023/07/12 03:18:50;;;;;;;;;0.75;0.25;;;;;-146.67;41.28;74262.34;5081195;28;62023;-77
2023/07/12 03:21:16;;;;;;;;;1.50;1.00;;;;;-146.67;41.41;74278.31;5081373;28;61941;-76
2023/07/12 03:23:42;;;;;;;;;1.00;1.00;;;;;-146.67;41.27;74270.31;5098803;27;62072;-76
2023/07/12 03:26:07;;;;;;;;;1.50;1.50;;;;;-146.67;41.23;74282.31;5098058;27;64973;-76
2023/07/12 03:28:32;;;;;;;;;1.00;1.00;;;;;-146.67;41.09;74282.31;5082524;27;61888;-77
2023/07/12 03:31:10;;;;;;;;;1.50;0.50;;;;;-146.67;40.90;74282.31;5082724;28;61803;-77
2023/07/12 03:33:36;;;;;;;;;2.75;1.00;;;;;-146.67;40.94;74282.31;5082079;28;61719;-76
2023/07/12 03:36:03;;;;;;;;;1.75;0.25;;;;;-146.67;40.67;74284.28;5080642;28;64701;-76
2023/07/12 03:38:30;;;;;;;;;2.00;1.00;;;;;-146.67;40.78;74290.28;5081328;28;62355;-76
2023/07/12 03:41:03;;;;;;;;;0.50;0.25;;;;;-146.67;40.34;74294.28;5082813;27;62130;-76
2023/07/12 03:43:30;;;;;;;;;0.75;0.00;;;;;-146.67;40.89;74314.25;5082428;27;61687;-76
2023/07/12 03:45:55;;;;;;;;;1.00;1.00;;;;;-146.67;40.70;74322.22;5065458;28;62919;-76
2023/07/12 03:48:23;;;;;;;;;2.00;1.00;;;;;-146.67;40.69;74330.22;5077584;28;61850;-76
2023/07/12 03:50:49;;;;;;;;;1.25;1.25;;;;;-146.67;40.31;74324.22;5071068;28;61741;-76
2023/07/12 03:53:15;;;;;;;;;2.00;1.00;;;;;-146.67;40.27;74332.22;5098427;27;61844;-75
2023/07/12 03:55:43;;;;;;;;;2.75;1.75;;;;;-146.67;40.45;74344.19;5079989;28;64023;-76
2023/07/12 03:58:12;;;;;;;;;3.00;1.25;;;;;-146.67;40.92;74362.16;5082076;28;61960;-77
2023/07/12 04:00:41;;;;;;;;;0.50;0.00;;;;;-146.67;41.18;74384.13;5082115;27;61924;-75
2023/07/12 04:03:07;;;;;;;;;0.00;0.00;;;;;-146.67;40.87;74374.13;5098240;27;61932;-76
2023/07/12 04:05:40;;;;;;;;;3.75;1.00;;;;;-146.67;40.67;74370.16;5081385;28;61854;-76
2023/07/12 04:08:06;;;;;;;;;1.50;0.75;;;;;-146.67;41.09;74374.13;5082465;28;61657;-76
2023/07/12 04:10:32;;;;;;;;;1.00;1.00;;;;;-146.67;41.12;74382.13;5082378;28;61847;-75
2023/07/12 04:12:58;;;;;;;;;1.50;1.00;;;;;-146.67;41.21;74398.09;5082150;28;61767;-76
2023/07/12 04:15:23;;;;;;;;;1.00;1.00;;;;;-146.67;41.51;74390.09;5081370;27;62934;-76
2023/07/12 04:17:49;;;;;;;;;3.25;2.00;;;;;-146.67;41.17;74376.13;5080902;28;61843;-76
2023/07/12 04:20:15;;;;;;;;;1.00;1.00;;;;;-146.67;41.04;74376.13;5081901;28;62030;-76
2023/07/12 04:22:40;;;;;;;;;4.00;1.25;;;;;-146.67;41.09;74384.13;5081976;28;62165;-76
2023/07/12 04:25:08;;;;;;;;;1.00;1.00;;;;;-146.67;41.43;74406.06;5081772;27;62889;-76
2023/07/12 04:27:37;;;;;;;;;1.25;1.25;;;;;-146.67;41.24;74404.09;5096949;27;61765;-75
2023/07/12 04:30:06;;;;;;;;;0.00;0.00;;;;;-146.67;41.06;74406.06;5080583;28;61984;-75
2023/07/12 04:32:31;;;;;;;;;0.75;0.75;;;;;-146.67;41.29;74404.09;5080820;28;61914;-76
2023/07/12 04:34:57;;;;;;;;;0.00;0.00;;;;;-146.67;41.26;74432.03;5081500;27;61883;-75
2023/07/12 04:37:22;;;;;;;;;1.00;0.50;;;;;-146.67;41.12;74430.03;5079928;28;61821;-76
2023/07/12 04:39:47;;;;;;;;;1.50;1.00;;;;;-146.67;41.12;74436.03;5081979;27;62324;-76
2023/07/12 04:42:13;;;;;;;;;1.00;0.00;;;;;-146.67;40.84;74428.03;5096034;27;61811;-76
2023/07/12 04:44:39;;;;;;;;;1.75;1.00;;;;;-146.67;41.26;74434.03;5068939;27;63673;-77
2023/07/12 04:47:06;;;;;;;;;1.50;0.00;;;;;-146.67;41.09;74440.00;5084211;28;61874;-84
2023/07/12 04:49:31;;;;;;;;;1.25;0.75;;;;;-146.67;40.86;74438.03;5094510;27;61759;-78
2023/07/12 04:51:57;;;;;;;;;2.00;1.00;;;;;-146.67;41.51;74456.00;5101122;27;61810;-81
2023/07/12 04:54:22;;;;;;;;;2.00;1.00;;;;;-146.67;41.20;74456.00;5078542;27;61985;-81
2023/07/12 04:56:48;;;;;;;;;1.00;1.00;;;;;-146.67;41.02;74473.97;5084590;28;62114;-82
2023/07/12 04:59:15;;;;;;;;;2.25;1.00;;;;;-146.67;40.90;74454.00;5084178;27;62151;-82
2023/07/12 05:01:40;;;;;;;;;1.00;1.00;;;;;-146.67;40.90;74465.97;5083891;27;61805;-82
2023/07/12 05:04:06;;;;;;;;;1.00;1.00;;;;;-146.67;40.56;74471.97;5065462;28;64775;-76
2023/07/12 05:06:31;;;;;;;;;0.25;0.25;;;;;-146.67;40.50;74481.94;5069035;27;61937;-77
2023/07/12 05:08:56;;;;;;;;;3.50;1.50;;;;;-146.67;40.35;74471.97;5079642;28;62067;-77
2023/07/12 05:11:22;;;;;;;;;0.50;0.50;;;;;-146.67;40.27;74459.97;5075899;28;61972;-77
2023/07/12 05:13:48;;;;;;;;;1.25;1.25;;;;;-146.67;39.92;74450.00;5082706;28;63524;-79
2023/07/12 05:16:13;;;;;;;;;1.00;1.00;;;;;-146.67;40.26;74461.97;5084348;27;61948;-78
2023/07/12 05:18:38;;;;;;;;;2.00;1.00;;;;;-146.67;40.04;74454.00;5083953;27;62474;-78
2023/07/12 05:21:11;;;;;;;;;0.50;0.25;;;;;-146.67;39.89;74456.00;5083713;27;62104;-79
2023/07/12 05:23:39;;;;;;;;;2.25;2.00;;;;;-146.67;40.07;74473.97;5083811;27;62853;-79
2023/07/12 05:26:06;;;;;;;;;1.00;1.00;;;;;-146.67;40.31;74493.91;5082189;27;61770;-79
2023/07/12 05:28:31;;;;;;;;;0.75;0.00;;;;;-146.67;40.25;74493.91;5084613;27;61758;-79
2023/07/12 05:30:57;;;;;;;;;1.00;1.00;;;;;-146.67;40.30;74487.94;5084279;27;61991;-80
2023/07/12 05:33:22;;;;;;;;;2.50;1.50;;;;;-146.67;40.12;74467.97;5082638;27;64155;-80
2023/07/12 05:35:48;;;;;;;;;1.00;1.00;;;;;-146.67;39.44;74416.06;5083106;28;61854;-79
2023/07/12 05:38:13;;;;;;;;;1.00;1.00;;;;;-146.67;39.44;74406.06;5083063;27;62219;-79
2023/07/12 05:40:39;;;;;;;;;0.75;0.75;;;;;-146.67;39.26;74408.06;5084112;28;61769;-82
2023/07/12 05:43:04;;;;;;;;;3.50;1.50;;;;;-146.67;38.65;74362.16;5082330;27;63775;-79
2023/07/12 05:45:29;;;;;;;;;1.75;1.00;;;;;-146.67;37.92;74262.34;5084136;27;61845;-79
2023/07/12 05:47:55;;;;;;;;;2.00;2.00;;;;;-146.67;37.18;74232.41;5082867;28;61962;-79
2023/07/12 05:50:20;;;;;;;;;1.00;1.00;;;;;-146.67;36.81;74188.47;5099605;27;61885;-78
2023/07/12 05:52:47;;;;;;;;;4.25;1.00;;;;;-146.67;37.09;74216.44;5065505;27;61986;-79
2023/07/12 05:55:15;;;;;;;;;2.00;1.50;;;;;-146.67;37.25;74234.38;5063902;28;62086;-79
2023/07/12 05:57:40;;;;;;;;;0.00;0.00;;;;;-146.67;37.69;74290.28;5067399;28;61808;-79
2023/07/12 06:00:10;;;;;;;;;1.25;1.25;;;;;-146.67;37.89;74322.22;5078793;28;61837;-81
2023/07/12 06:02:36;;;;;;;;;0.50;0.50;;;;;-146.67;37.83;74322.22;5066115;27;63653;-82
2023/07/12 06:05:02;;;;;;;;;0.75;0.00;;;;;-146.67;38.17;74344.19;5061878;28;61874;-79
2023/07/12 06:07:28;;;;;;;;;1.50;1.00;;;;;-146.67;38.06;74340.19;5077424;28;61904;-79
2023/07/12 06:09:53;;;;;;;;;2.50;1.50;;;;;-146.67;38.31;74360.16;5068820;27;61916;-78
2023/07/12 06:12:19;;;;;;;;;2.00;1.00;;;;;-146.67;38.45;74376.13;5098827;27;64597;-77
2023/07/12 06:14:44;;;;;;;;;1.25;1.00;;;;;-146.67;38.63;74384.13;5082885;27;62008;-78
2023/07/12 06:17:10;;;;;;;;;0.50;0.50;;;;;-146.67;38.48;74374.13;5082398;27;61745;-77
2023/07/12 06:19:35;;;;;;;;;3.50;0.75;;;;;-146.67;38.23;74334.22;5082916;27;61699;-78
2023/07/12 06:22:00;;;;;;;;;2.00;0.75;;;;;-146.67;37.66;74284.28;5073427;27;62802;-77
2023/07/12 06:24:26;;;;;;;;;1.50;0.00;;;;;-146.67;36.93;74240.38;5076768;28;61839;-78
2023/07/12 06:26:51;;;;;;;;;1.00;1.00;;;;;-146.67;36.62;74214.44;5077939;27;61899;-78
2023/07/12 06:29:17;;;;;;;;;2.00;1.00;;;;;-146.67;36.74;74206.44;5061264;28;61763;-77
2023/07/12 06:31:43;;;;;;;;;1.00;1.00;;;;;-146.67;36.27;74192.47;5061178;28;62119;-77
2023/07/12 06:34:09;;;;;;;;;1.00;1.00;;;;;-146.67;35.68;74142.56;5063065;28;61850;-79
2023/07/12 06:36:34;;;;;;;;;1.50;0.50;;;;;-146.67;36.25;74200.44;5062032;28;61962;-79
2023/07/12 06:39:00;;;;;;;;;2.25;1.50;;;;;-146.67;36.88;74258.34;5063406;28;61771;-79
2023/07/12 06:41:25;;;;;;;;;2.00;1.00;;;;;-146.67;36.69;74282.31;5071283;28;62011;-79
2023/07/12 06:43:51;;;;;;;;;1.25;1.25;;;;;-146.67;37.12;74330.22;5083610;27;61868;-79
2023/07/12 06:46:16;;;;;;;;;3.00;1.00;;;;;-146.67;36.88;74316.25;5082756;27;61763;-80
2023/07/12 06:48:42;;;;;;;;;1.25;1.25;;;;;-146.67;36.99;74316.25;5081956;27;61824;-80
2023/07/12 06:51:08;;;;;;;;;3.00;1.00;;;;;-146.67;36.58;74284.28;5074466;27;64664;-80
2023/07/12 06:53:33;;;;;;;;;0.50;0.50;;;;;-146.67;36.56;74290.28;5061165;28;61751;-80
2023/07/12 06:55:59;;;;;;;;;0.50;0.50;;;;;-146.67;36.54;74300.28;5063087;28;61731;-80
2023/07/12 06:58:24;;;;;;;;;3.75;1.00;;;;;-146.67;36.50;74328.22;5061975;28;62033;-80
2023/07/12 07:00:50;;;;;;;;;1.00;0.00;;;;;-146.67;36.61;74328.22;5062413;28;61948;-80
2023/07/12 07:03:16;;;;;;;;;0.00;0.00;;;;;-146.67;36.63;74330.22;5075535;28;62087;-80
2023/07/12 07:05:47;;;;;;;;;1.00;1.00;;;;;-146.67;36.57;74336.19;5081903;28;61851;-80
2023/07/12 07:08:15;;;;;;;;;1.00;0.25;;;;;-146.67;36.94;74344.19;5081824;27;61885;-80
2023/07/12 07:10:41;;;;;;;;;1.00;1.00;;;;;-146.67;36.44;74322.22;5098323;27;63774;-80
2023/07/12 07:13:06;;;;;;;;;1.25;0.00;;;;;-146.67;36.47;74332.22;5081997;28;61944;-80
2023/07/12 07:15:31;;;;;;;;;3.00;1.00;;;;;-146.67;36.14;74340.19;5098557;27;61795;-80
2023/07/12 07:17:57;;;;;;;;;0.00;0.00;;;;;-146.67;36.14;74306.25;5082158;27;61955;-80
2023/07/12 07:20:23;;;;;;;;;2.00;0.50;;;;;-146.67;36.09;74306.25;5080578;28;64102;-80
2023/07/12 07:22:48;;;;;;;;;1.00;1.00;;;;;-146.67;36.09;74292.28;5082512;28;61911;-80
2023/07/12 07:25:14;;;;;;;;;1.00;1.00;;;;;-146.67;36.30;74296.28;5083186;28;62129;-80
2023/07/12 07:27:39;;;;;;;;;4.00;2.00;;;;;-146.67;35.99;74304.25;5083151;27;62038;-80
2023/07/12 07:30:05;;;;;;;;;1.75;0.75;;;;;-146.67;36.31;74326.22;5080944;28;63882;-80
2023/07/12 07:32:32;;;;;;;;;3.00;1.75;;;;;-146.67;36.24;74334.22;5081426;28;61893;-80
2023/07/12 07:34:57;;;;;;;;;0.75;0.75;;;;;-146.67;35.91;74314.25;5081746;27;62059;-80
2023/07/12 07:37:40;;;;;;;;;0.75;0.50;;;;;-146.67;35.82;74268.31;5140744;27;61667;-80
2023/07/12 07:40:07;;;;;;;;;1.50;0.50;;;;;-146.67;35.71;74280.31;5101842;27;61725;-80
2023/07/12 07:42:32;;;;;;;;;1.00;1.00;;;;;-146.67;35.74;74278.31;5101595;27;61797;-81
2023/07/12 07:44:58;;;;;;;;;1.00;1.00;;;;;-146.67;35.74;74252.34;5100880;27;63989;-80
2023/07/12 07:47:23;;;;;;;;;0.50;0.50;;;;;-146.67;34.93;74224.41;5120264;27;61865;-79
2023/07/12 07:49:48;;;;;;;;;6.50;0.75;;;;;-146.67;34.51;74180.50;5100905;27;61814;-80
2023/07/12 07:52:14;;;;;;;;;2.00;2.00;;;;;-146.67;34.29;74170.50;5120137;27;62290;-80
2023/07/12 07:54:39;;;;;;;;;1.50;0.00;;;;;-146.67;34.39;74184.47;5119504;27;61914;-80
2023/07/12 07:57:06;;;;;;;;;1.00;1.00;;;;;-146.67;34.37;74208.44;5101540;27;61812;-81
2023/07/12 07:59:32;;;;;;;;;0.00;0.00;;;;;-146.67;34.31;74208.44;5101115;27;61841;-80
2023/07/12 08:01:58;;;;;;;;;2.00;1.00;;;;;-146.67;34.47;74214.44;5101387;27;62155;-80
2023/07/12 08:04:23;;;;;;;;;0.25;0.25;;;;;-146.67;34.51;74226.41;5080837;27;64136;-80
2023/07/12 08:06:50;;;;;;;;;0.25;0.25;;;;;-146.67;34.75;74232.41;5098821;27;61916;-80
2023/07/12 08:09:16;;;;;;;;;2.00;1.00;;;;;-146.67;34.77;74224.41;5099691;27;62045;-80
2023/07/12 08:11:42;;;;;;;;;0.00;0.00;;;;;-146.67;34.35;74188.47;5080674;27;62078;-80
2023/07/12 08:14:08;;;;;;;;;1.00;1.00;;;;;-146.67;34.12;74192.47;5079759;27;64040;-79
2023/07/12 08:16:36;;;;;;;;;1.25;0.25;;;;;-146.67;34.14;74214.44;5080644;27;62015;-80
2023/07/12 08:19:04;;;;;;;;;3.00;0.75;;;;;-146.67;34.25;74220.41;5098484;27;62134;-80
2023/07/12 08:21:30;;;;;;;;;1.25;1.00;;;;;-146.67;34.37;74226.41;5080635;27;62004;-80
2023/07/12 08:23:56;;;;;;;;;2.67;0.67;;;;;-146.67;34.39;74224.41;5097181;27;63681;-80
2023/07/12 08:26:21;;;;;;;;;0.75;0.75;;;;;-146.67;34.20;74228.41;5080481;27;61770;-80
2023/07/12 08:28:47;;;;;;;;;2.25;0.00;;;;;-146.67;33.88;74214.44;5098864;27;61854;-80
2023/07/12 08:31:13;;;;;;;;;2.25;1.00;;;;;-146.67;33.53;74202.44;5098908;27;61965;-80
2023/07/12 08:33:41;;;;;;;;;3.00;0.00;;;;;-146.67;33.57;74194.47;5096450;27;64772;-80
2023/07/12 08:36:06;;;;;;;;;0.00;0.00;;;;;-146.67;33.74;74190.47;5090923;27;61914;-79
2023/07/12 08:38:32;;;;;;;;;1.25;1.00;;;;;-146.67;33.66;74188.47;5060383;28;61937;-80
2023/07/12 08:40:58;;;;;;;;;0.00;0.00;;;;;-146.67;33.49;74148.56;5060110;28;61742;-80
2023/07/12 08:43:33;;;;;;;;;0.75;0.00;;;;;-146.67;33.09;74132.56;5059577;28;65144;-80
2023/07/12 08:46:18;;;;;;;;;0.25;0.25;;;;;-146.67;33.06;74142.56;5078020;28;62091;-80
2023/07/12 08:48:44;;;;;;;;;0.00;0.00;;;;;-146.67;33.16;74138.56;5065171;28;61867;-80
2023/07/12 08:51:15;;;;;;;;;1.00;1.00;;;;;-146.67;33.21;74152.53;5046695;28;61754;-80
2023/07/12 08:53:41;;;;;;;;;0.00;0.00;;;;;-146.67;33.43;74144.56;5064071;28;61865;-80
2023/07/12 08:56:12;;;;;;;;;0.50;0.00;;;;;-146.67;33.32;74168.50;5046441;28;62072;-80
2023/07/12 08:58:44;;;;;;;;;2.25;0.75;;;;;-146.67;33.51;74172.50;5064684;28;61994;-80
2023/07/12 09:01:16;;;;;;;;;1.00;1.00;;;;;-146.67;33.53;74176.50;5064438;28;61946;-80
2023/07/12 09:03:42;;;;;;;;;0.00;0.00;;;;;-146.67;33.27;74168.50;5061532;28;64606;-80
2023/07/12 09:06:13;;;;;;;;;1.50;0.00;;;;;-146.67;33.16;74140.56;5084534;28;61842;-80
2023/07/12 09:08:42;;;;;;;;;1.00;0.00;;;;;-146.67;32.75;74124.59;5066542;28;62097;-80
2023/07/12 09:11:20;;;;;;;;;1.00;1.00;;;;;-146.67;32.67;74120.59;5066354;28;61981;-80
2023/07/12 09:13:46;;;;;;;;;1.00;1.00;;;;;-146.67;32.68;74146.56;5065956;28;64974;-80
2023/07/12 09:16:23;;;;;;;;;1.00;1.00;;;;;-146.67;33.04;74184.47;5084184;28;62084;-80
2023/07/12 09:18:53;;;;;;;;;1.00;1.00;;;;;-146.67;33.24;74182.50;5083309;28;61942;-80
2023/07/12 09:21:27;;;;;;;;;3.50;0.50;;;;;-146.67;32.84;74182.50;5066290;28;61858;-80
2023/07/12 09:24:00;;;;;;;;;0.00;0.00;;;;;-146.67;32.28;74168.50;5065627;28;63767;-80
2023/07/12 09:26:28;;;;;;;;;0.00;0.00;;;;;-146.67;32.51;74152.53;5084461;28;61807;-80
2023/07/12 09:29:17;;;;;;;;;0.25;0.25;;;;;-146.67;32.27;74152.53;5084439;28;61782;-80
2023/07/12 09:31:44;;;;;;;;;1.50;0.50;;;;;-146.67;32.46;74152.53;5065191;28;62451;-80
2023/07/12 09:34:22;;;;;;;;;1.00;1.00;;;;;-146.67;32.60;74164.53;5065275;28;64006;-80
2023/07/12 09:36:59;;;;;;;;;1.75;0.50;;;;;-146.67;32.45;74156.53;5088835;27;62073;-80
2023/07/12 09:39:25;;;;;;;;;1.00;0.25;;;;;-146.67;32.56;74134.56;5104947;27;61769;-80
2023/07/12 09:41:56;;;;;;;;;1.75;1.75;;;;;-146.67;31.85;74094.66;5103297;27;61936;-80
2023/07/12 09:44:21;;;;;;;;;0.00;0.00;;;;;-146.67;31.42;74062.72;5102283;27;63971;-80
2023/07/12 09:46:55;;;;;;;;;2.25;0.50;;;;;-146.67;31.68;74052.72;5102746;27;61961;-80
2023/07/12 09:49:25;;;;;;;;;0.67;0.00;;;;;-146.67;31.46;74030.78;5102946;27;62054;-80
2023/07/12 09:52:30;;;;;;;;;0.00;0.00;;;;;-146.67;30.89;74004.81;5103282;27;61828;-80
2023/07/12 09:55:03;;;;;;;;;0.00;0.00;;;;;-146.67;30.58;73990.84;5102345;27;64897;-80
2023/07/12 09:57:53;;;;;;;;;1.25;0.00;;;;;-146.67;30.77;74014.81;5103136;27;61804;-80
2023/07/12 10:00:33;;;;;;;;;1.00;1.00;;;;;-146.67;30.86;74026.78;5101328;27;61908;-80
2023/07/12 10:03:16;;;;;;;;;2.00;0.33;;;;;-146.67;30.20;74020.78;5096151;27;61964;-80
2023/07/12 10:05:49;;;;;;;;;1.00;1.00;;;;;-146.67;30.15;74056.72;5083342;27;63227;-80
2023/07/12 10:08:18;;;;;;;;;1.00;1.00;;;;;-146.67;30.37;74056.72;5082151;28;61854;-80
2023/07/12 10:10:52;;;;;;;;;1.00;1.00;;;;;-146.67;30.14;74008.81;5082379;28;61876;-80
2023/07/12 10:13:40;;;;;;;;;0.00;0.00;;;;;-146.67;29.68;73974.88;5083953;27;61784;-80
2023/07/12 10:16:13;;;;;;;;;0.00;0.00;;;;;-146.67;29.75;73942.94;5080828;28;64437;-79
2023/07/12 10:18:39;;;;;;;;;1.00;1.00;;;;;-146.67;29.69;73905.00;5083782;27;61896;-80
2023/07/12 10:21:07;;;;;;;;;2.67;0.67;;;;;-146.67;29.57;73901.03;5082801;28;62048;-80
2023/07/12 10:23:43;;;;;;;;;1.00;0.67;;;;;-146.67;29.11;73903.00;5083940;28;61715;-79
2023/07/12 10:26:12;;;;;;;;;0.00;0.00;;;;;-146.67;28.86;73881.06;5082628;28;62106;-80
2023/07/12 10:28:43;;;;;;;;;0.00;0.00;;;;;-146.67;28.75;73849.13;5099191;27;61791;-80
2023/07/12 10:31:30;;;;;;;;;0.33;0.33;;;;;-146.67;28.41;73831.16;5081224;28;61893;-80
2023/07/12 10:34:07;;;;;;;;;0.00;0.00;;;;;-146.67;28.78;73827.16;5082385;28;61848;-80
2023/07/12 10:36:35;;;;;;;;;1.00;1.00;;;;;-146.67;28.66;73801.22;5081173;28;64292;-79
2023/07/12 10:39:01;;;;;;;;;1.00;1.00;;;;;-146.67;28.54;73827.16;5083164;28;61964;-80
2023/07/12 10:41:35;;;;;;;;;1.00;1.00;;;;;-146.67;29.26;73883.06;5082942;27;61763;-80
2023/07/12 10:44:25;;;;;;;;;1.00;1.00;;;;;-146.67;29.29;73893.03;5082894;27;62097;-80
2023/07/12 10:47:05;;;;;;;;;2.00;1.00;;;;;-146.67;29.18;73871.06;5082452;28;62996;-80
2023/07/12 10:49:42;;;;;;;;;0.33;0.00;;;;;-146.67;28.70;73875.06;5082579;27;61692;-80
2023/07/12 10:52:10;;;;;;;;;3.00;1.00;;;;;-146.67;28.15;73865.09;5081470;28;61834;-80
2023/07/12 10:54:35;;;;;;;;;1.67;0.67;;;;;-146.67;28.44;73855.09;5082078;28;62158;-80
2023/07/12 10:57:31;;;;;;;;;0.67;0.67;;;;;-146.67;28.43;73859.09;5080725;28;65004;-80
2023/07/12 11:00:22;;;;;;;;;3.00;1.00;;;;;-146.67;28.57;73847.13;5057371;28;61837;-79
2023/07/12 11:03:02;;;;;;;;;0.00;0.00;;;;;-146.67;28.19;73811.19;5091285;27;61935;-80
2023/07/12 11:05:56;;;;;;;;;0.00;0.00;;;;;-146.67;28.12;73803.22;5103367;27;61886;-80
2023/07/12 11:08:30;;;;;;;;;1.67;0.00;;;;;-146.67;27.73;73791.22;5101140;27;63734;-80
2023/07/12 11:11:08;;;;;;;;;2.33;0.33;;;;;-146.67;27.13;73749.31;5102831;27;61699;-80
2023/07/12 11:13:41;;;;;;;;;0.00;0.00;;;;;-146.67;27.51;73743.31;5102920;27;61802;-79
2023/07/12 11:16:15;;;;;;;;;1.00;1.00;;;;;-146.67;27.67;73735.34;5101522;27;62114;-80
2023/07/12 11:18:52;;;;;;;;;0.33;0.33;;;;;-146.67;27.77;73739.34;5101162;27;64062;-79
2023/07/12 11:21:40;;;;;;;;;0.67;0.67;;;;;-146.67;28.10;73753.31;5101494;27;61895;-79
2023/07/12 11:24:30;;;;;;;;;1.33;1.00;;;;;-146.67;27.84;73769.28;5101816;27;61813;-79